createdAt,value
2022-08-14T00:00:59.638Z,37.06
2022-08-14T00:02:02.924Z,37.07
2022-08-14T00:03:04.632Z,37.01
2022-08-14T00:04:35.862Z,37.24
2022-08-14T00:05:27.790Z,37.24
2022-08-14T00:06:29.526Z,37.31
2022-08-14T00:07:31.027Z,37.45
2022-08-14T00:08:44.900Z,37.30
2022-08-14T00:10:02.457Z,37.50
2022-08-14T00:11:08.712Z,37.46
2022-08-14T00:12:23.804Z,37.40
2022-08-14T00:13:28.851Z,37.15
2022-08-14T00:14:32.546Z,37.57
2022-08-14T00:15:43.623Z,37.60
2022-08-14T00:16:46.305Z,37.61
2022-08-14T00:17:53.872Z,37.67
2022-08-14T00:19:06.506Z,37.74
2022-08-14T00:20:24.017Z,37.93
2022-08-14T00:21:31.117Z,37.54
2022-08-14T00:22:56.251Z,37.51
2022-08-14T00:23:56.809Z,37.33
2022-08-14T00:25:03.639Z,37.76
2022-08-14T00:26:06.692Z,37.80
2022-08-14T00:27:10.080Z,37.67
2022-08-14T00:28:15.364Z,38.01
2022-08-14T00:29:19.289Z,37.99
2022-08-14T00:30:21.188Z,37.90
2022-08-14T00:31:35.011Z,37.80
2022-08-14T00:32:55.723Z,38.19
2022-08-14T00:33:58.785Z,38.21
2022-08-14T00:35:19.555Z,38.49
2022-08-14T00:36:47.017Z,38.24
2022-08-14T00:37:45.537Z,37.85
2022-08-14T00:38:47.303Z,38.21
2022-08-14T00:39:49.067Z,38.49
2022-08-14T00:40:51.107Z,38.64
2022-08-14T00:41:56.246Z,38.79
2022-08-14T00:42:58.945Z,38.75
2022-08-14T00:44:00.443Z,38.61
2022-08-14T00:45:03.786Z,38.85
2022-08-14T00:46:08.104Z,38.85
2022-08-14T00:47:10.832Z,38.90
2022-08-14T00:48:12.708Z,38.71
2022-08-14T00:49:37.767Z,38.67
2022-08-14T00:50:40.064Z,38.90
2022-08-14T00:51:44.186Z,38.99
2022-08-14T00:52:46.448Z,38.93
2022-08-14T00:53:53.735Z,39.35
2022-08-14T00:54:58.298Z,39.21
2022-08-14T00:56:00.029Z,39.09
2022-08-14T00:57:01.557Z,39.00
2022-08-14T00:58:27.986Z,39.10
2022-08-14T00:59:35.703Z,39.06
2022-08-14T01:00:43.079Z,39.23
2022-08-14T01:01:54.335Z,39.21
2022-08-14T01:02:55.978Z,39.31
2022-08-14T01:04:01.508Z,39.59
2022-08-14T01:05:08.470Z,39.48
2022-08-14T01:06:10.612Z,39.49
2022-08-14T01:07:20.853Z,39.56
2022-08-14T01:08:51.253Z,39.70
2022-08-14T01:09:45.456Z,39.89
2022-08-14T01:10:53.270Z,39.98
2022-08-14T01:11:57.209Z,39.88
2022-08-14T01:13:04.567Z,40.07
2022-08-14T01:14:28.202Z,39.89
2022-08-14T01:15:31.719Z,39.67
2022-08-14T01:16:53.197Z,40.07
2022-08-14T01:18:30.253Z,40.22
2022-08-14T01:19:50.303Z,40.24
2022-08-14T01:21:04.276Z,40.38
2022-08-14T01:22:07.429Z,40.33
2022-08-14T01:23:16.548Z,40.39
2022-08-14T01:24:24.743Z,40.48
2022-08-14T01:25:32.522Z,40.49
2022-08-14T01:26:39.142Z,40.44
2022-08-14T01:27:53.829Z,40.57
2022-08-14T01:28:59.489Z,40.36
2022-08-14T01:30:03.970Z,40.55
2022-08-14T01:31:14.215Z,40.74
2022-08-14T01:32:23.244Z,40.62
2022-08-14T01:33:29.191Z,40.57
2022-08-14T01:35:20.115Z,40.60
2022-08-14T01:36:03.623Z,40.61
2022-08-14T01:37:07.500Z,40.45
2022-08-14T01:38:15.181Z,40.49
2022-08-14T01:39:18.414Z,40.78
2022-08-14T01:40:25.576Z,40.85
2022-08-14T01:41:36.072Z,40.32
2022-08-14T01:42:37.569Z,40.31
2022-08-14T01:43:56.670Z,40.56
2022-08-14T01:44:58.571Z,40.90
2022-08-14T01:46:06.806Z,40.85
2022-08-14T01:47:12.258Z,40.71
2022-08-14T01:48:23.603Z,41.09
2022-08-14T01:49:27.231Z,41.00
2022-08-14T01:50:37.226Z,41.15
2022-08-14T01:51:39.445Z,41.29
2022-08-14T01:52:59.867Z,41.36
2022-08-14T01:54:03.417Z,41.11
2022-08-14T01:55:06.742Z,41.36
2022-08-14T01:56:12.064Z,41.32
2022-08-14T01:57:19.937Z,41.48
2022-08-14T01:58:28.806Z,41.55
2022-08-14T01:59:37.945Z,41.75
2022-08-14T02:00:40.097Z,41.82
2022-08-14T02:01:51.188Z,41.82
2022-08-14T02:02:53.747Z,41.89
2022-08-14T02:03:56.989Z,42.12
2022-08-14T02:04:59.586Z,41.90
2022-08-14T02:06:04.049Z,42.06
2022-08-14T02:07:34.330Z,42.24
2022-08-14T02:08:52.850Z,42.16
2022-08-14T02:09:56.872Z,42.18
2022-08-14T02:11:17.097Z,42.34
2022-08-14T02:12:26.284Z,42.24
2022-08-14T02:13:30.867Z,42.34
2022-08-14T02:14:33.112Z,42.34
2022-08-14T02:15:40.856Z,42.63
2022-08-14T02:16:46.443Z,42.23
2022-08-14T02:17:51.113Z,42.34
2022-08-14T02:18:59.023Z,42.50
2022-08-14T02:20:00.497Z,42.38
2022-08-14T02:21:04.921Z,42.26
2022-08-14T02:22:06.717Z,42.41
2022-08-14T02:23:11.975Z,42.37
2022-08-14T02:24:39.289Z,42.22
2022-08-14T02:25:35.169Z,42.55
2022-08-14T02:28:19.078Z,42.35
2022-08-14T02:28:25.870Z,42.49
2022-08-14T02:29:22.249Z,42.34
2022-08-14T02:30:26.247Z,42.38
2022-08-14T02:31:42.083Z,42.58
2022-08-14T02:32:46.012Z,42.44
2022-08-14T02:33:48.211Z,42.77
2022-08-14T02:34:49.817Z,42.84
2022-08-14T02:36:05.252Z,42.71
2022-08-14T02:37:18.081Z,42.60
2022-08-14T02:38:30.491Z,42.79
2022-08-14T02:39:40.580Z,42.69
2022-08-14T02:40:42.116Z,42.76
2022-08-14T02:41:52.353Z,42.72
2022-08-14T02:42:57.504Z,42.85
2022-08-14T02:44:39.538Z,42.93
2022-08-14T02:45:44.422Z,42.78
2022-08-14T02:46:49.713Z,43.20
2022-08-14T02:47:57.282Z,43.50
2022-08-14T02:49:01.651Z,43.55
2022-08-14T02:50:07.102Z,43.69
2022-08-14T02:51:10.924Z,43.30
2022-08-14T02:52:26.566Z,43.47
2022-08-14T02:53:29.739Z,43.29
2022-08-14T02:54:34.219Z,43.34
2022-08-14T02:55:36.170Z,43.57
2022-08-14T02:57:15.411Z,43.67
2022-08-14T02:58:03.563Z,43.52
2022-08-14T02:59:07.824Z,43.75
2022-08-14T03:00:11.172Z,43.81
2022-08-14T03:01:13.095Z,43.58
2022-08-14T03:02:33.485Z,43.99
2022-08-14T03:03:38.760Z,44.23
2022-08-14T03:04:40.444Z,44.28
2022-08-14T03:05:41.958Z,44.18
2022-08-14T03:07:06.115Z,44.42
2022-08-14T03:08:07.891Z,44.40
2022-08-14T03:09:09.924Z,44.35
2022-08-14T03:10:27.723Z,44.71
2022-08-14T03:11:34.716Z,44.57
2022-08-14T03:12:37.213Z,44.61
2022-08-14T03:13:43.019Z,44.87
2022-08-14T03:14:50.119Z,44.73
2022-08-14T03:15:54.991Z,44.69
2022-08-14T03:16:57.936Z,44.77
2022-08-14T03:18:00.907Z,44.91
2022-08-14T03:19:02.723Z,45.18
2022-08-14T03:20:07.116Z,45.43
2022-08-14T03:21:16.222Z,45.34
2022-08-14T03:22:18.002Z,45.75
2022-08-14T03:23:19.845Z,45.50
2022-08-14T03:24:24.469Z,45.76
2022-08-14T03:25:27.070Z,45.81
2022-08-14T03:26:30.252Z,45.40
2022-08-14T03:27:35.303Z,45.47
2022-08-14T03:28:50.062Z,45.87
2022-08-14T03:29:52.827Z,45.81
2022-08-14T03:30:54.766Z,46.15
2022-08-14T03:31:56.567Z,45.89
2022-08-14T03:32:58.242Z,46.25
2022-08-14T03:34:00.929Z,46.26
2022-08-14T03:35:02.407Z,46.27
2022-08-14T03:37:50.763Z,46.31
2022-08-14T03:39:09.496Z,46.13
2022-08-14T03:39:15.647Z,46.60
2022-08-14T03:40:20.426Z,47.01
2022-08-14T03:41:22.969Z,47.09
2022-08-14T03:42:25.255Z,47.11
2022-08-14T03:43:38.058Z,47.17
2022-08-14T03:45:18.514Z,47.29
2022-08-14T03:46:38.587Z,47.03
2022-08-14T03:47:46.657Z,47.41
2022-08-14T03:48:48.971Z,47.23
2022-08-14T03:49:56.152Z,47.57
2022-08-14T03:51:01.430Z,47.79
2022-08-14T03:52:18.187Z,47.37
2022-08-14T03:53:26.295Z,47.70
2022-08-14T03:54:28.206Z,47.73
2022-08-14T03:55:30.347Z,47.44
2022-08-14T03:56:33.029Z,47.71
2022-08-14T03:57:37.240Z,47.77
2022-08-14T03:58:39.249Z,47.88
2022-08-14T03:59:40.832Z,47.86
2022-08-14T04:00:46.136Z,48.21
2022-08-14T04:01:58.155Z,47.86
2022-08-14T04:03:04.751Z,47.95
2022-08-14T04:04:08.537Z,48.37
2022-08-14T04:05:12.237Z,48.27
2022-08-14T04:06:21.146Z,48.08
2022-08-14T04:07:23.245Z,48.10
2022-08-14T04:08:30.689Z,48.36
2022-08-14T04:09:33.183Z,48.63
2022-08-14T04:10:34.830Z,48.76
2022-08-14T04:11:36.990Z,48.46
2022-08-14T04:12:40.183Z,48.91
2022-08-14T04:13:42.277Z,48.75
2022-08-14T04:14:43.863Z,49.00
2022-08-14T04:15:56.387Z,48.81
2022-08-14T04:17:04.855Z,49.16
2022-08-14T04:18:11.874Z,49.17
2022-08-14T04:19:15.915Z,49.05
2022-08-14T04:20:25.616Z,49.43
2022-08-14T04:21:29.436Z,48.88
2022-08-14T04:22:32.869Z,49.11
2022-08-14T04:23:35.259Z,49.27
2022-08-14T04:24:38.405Z,49.14
2022-08-14T04:25:40.679Z,48.82
2022-08-14T04:26:44.447Z,49.19
2022-08-14T04:28:01.697Z,49.45
2022-08-14T04:29:14.686Z,49.21
2022-08-14T04:30:24.198Z,49.22
2022-08-14T04:32:59.062Z,49.75
2022-08-14T04:33:10.490Z,49.47
2022-08-14T04:34:20.813Z,49.51
2022-08-14T04:35:55.591Z,49.52
2022-08-14T04:37:08.935Z,49.89
2022-08-14T04:38:37.024Z,49.86
2022-08-14T04:39:58.697Z,49.61
2022-08-14T04:41:32.643Z,49.89
2022-08-14T04:42:52.779Z,49.85
2022-08-14T04:43:54.361Z,50.15
2022-08-14T04:45:00.746Z,50.15
2022-08-14T04:46:03.380Z,50.23
2022-08-14T04:47:26.938Z,50.50
2022-08-14T04:48:38.812Z,50.23
2022-08-14T04:49:56.763Z,50.01
2022-08-14T04:50:59.779Z,50.30
2022-08-14T04:52:03.264Z,50.31
2022-08-14T04:53:23.061Z,50.00
2022-08-14T04:54:27.932Z,50.31
2022-08-14T04:55:29.784Z,50.10
2022-08-14T04:56:34.495Z,50.25
2022-08-14T04:57:37.936Z,50.13
2022-08-14T04:58:39.715Z,50.45
2022-08-14T04:59:42.836Z,50.60
2022-08-14T05:00:45.097Z,50.39
2022-08-14T05:01:52.896Z,50.43
2022-08-14T05:02:57.945Z,50.65
2022-08-14T05:03:59.550Z,50.76
2022-08-14T05:05:01.446Z,50.75
2022-08-14T05:06:04.190Z,50.59
2022-08-14T05:07:08.906Z,50.76
2022-08-14T05:08:31.704Z,50.93
2022-08-14T05:09:35.773Z,50.83
2022-08-14T05:10:44.065Z,51.22
2022-08-14T05:11:46.064Z,51.49
2022-08-14T05:13:13.308Z,51.30
2022-08-14T05:14:33.957Z,51.34
2022-08-14T05:15:32.891Z,51.26
2022-08-14T05:16:34.435Z,51.40
2022-08-14T05:17:44.126Z,51.21
2022-08-14T05:19:25.121Z,51.50
2022-08-14T05:21:57.840Z,51.37
2022-08-14T05:21:59.302Z,51.67
2022-08-14T05:22:56.146Z,51.75
2022-08-14T05:23:57.793Z,52.07
2022-08-14T05:25:01.967Z,51.94
2022-08-14T05:26:03.811Z,52.00
2022-08-14T05:27:05.444Z,51.79
2022-08-14T05:28:16.181Z,52.08
2022-08-14T05:29:18.044Z,52.25
2022-08-14T05:30:20.075Z,52.16
2022-08-14T05:31:21.597Z,52.49
2022-08-14T05:32:23.394Z,52.41
2022-08-14T05:33:29.445Z,52.69
2022-08-14T05:34:32.240Z,52.42
2022-08-14T05:35:34.821Z,52.78
2022-08-14T05:36:37.678Z,52.91
2022-08-14T05:37:44.520Z,52.83
2022-08-14T05:38:47.885Z,52.83
2022-08-14T05:39:49.611Z,52.93
2022-08-14T05:40:51.758Z,53.23
2022-08-14T05:41:54.857Z,53.27
2022-08-14T05:42:57.043Z,53.54
2022-08-14T05:43:59.687Z,53.58
2022-08-14T05:45:01.559Z,53.93
2022-08-14T05:46:03.054Z,53.83
2022-08-14T05:47:07.371Z,53.68
2022-08-14T05:48:32.695Z,53.96
2022-08-14T05:49:34.870Z,53.79
2022-08-14T05:50:40.355Z,53.98
2022-08-14T05:51:46.847Z,54.02
2022-08-14T05:52:49.260Z,53.80
2022-08-14T05:54:00.020Z,54.01
2022-08-14T05:55:04.664Z,53.96
2022-08-14T05:56:06.426Z,53.62
2022-08-14T05:57:08.336Z,54.08
2022-08-14T05:58:11.402Z,53.94
2022-08-14T05:59:13.011Z,53.65
2022-08-14T06:00:28.371Z,53.77
2022-08-14T06:01:31.528Z,53.90
2022-08-14T06:02:33.754Z,54.23
2022-08-14T06:03:35.621Z,54.16
2022-08-14T06:04:38.350Z,54.38
2022-08-14T06:05:39.954Z,54.13
2022-08-14T06:06:41.882Z,53.97
2022-08-14T06:07:44.551Z,53.94
2022-08-14T06:08:47.044Z,53.72
2022-08-14T06:09:51.111Z,53.76
2022-08-14T06:10:55.606Z,53.60
2022-08-14T06:11:57.418Z,54.09
2022-08-14T06:13:03.396Z,54.00
2022-08-14T06:14:12.269Z,53.88
2022-08-14T06:15:16.123Z,53.74
2022-08-14T06:16:21.011Z,53.66
2022-08-14T06:17:26.158Z,53.47
2022-08-14T06:18:28.096Z,53.57
2022-08-14T06:19:33.891Z,53.45
2022-08-14T06:20:35.444Z,53.43
2022-08-14T06:21:37.327Z,53.59
2022-08-14T06:22:39.757Z,53.44
2022-08-14T06:23:41.521Z,53.72
2022-08-14T06:24:44.121Z,53.63
2022-08-14T06:25:45.729Z,53.44
2022-08-14T06:26:56.697Z,53.29
2022-08-14T06:28:05.615Z,53.44
2022-08-14T06:29:27.139Z,53.37
2022-08-14T06:30:46.039Z,53.21
2022-08-14T06:31:54.602Z,53.16
2022-08-14T06:33:06.361Z,52.79
2022-08-14T06:35:04.467Z,52.99
2022-08-14T06:35:30.009Z,52.78
2022-08-14T06:36:32.125Z,52.51
2022-08-14T06:37:43.971Z,52.59
2022-08-14T06:38:46.197Z,52.39
2022-08-14T06:39:51.949Z,52.50
2022-08-14T06:40:54.494Z,52.52
2022-08-14T06:41:58.075Z,52.17
2022-08-14T06:43:04.140Z,52.73
2022-08-14T06:44:09.765Z,52.46
2022-08-14T06:45:11.371Z,52.50
2022-08-14T06:46:32.418Z,52.73
2022-08-14T06:47:36.407Z,52.14
2022-08-14T06:48:37.959Z,52.37
2022-08-14T06:49:48.537Z,52.36
2022-08-14T06:50:59.123Z,52.26
2022-08-14T06:52:00.799Z,52.20
2022-08-14T06:53:03.267Z,52.25
2022-08-14T06:54:04.823Z,51.94
2022-08-14T06:55:10.934Z,52.30
2022-08-14T06:56:13.491Z,52.30
2022-08-14T06:57:15.571Z,51.96
2022-08-14T06:58:28.637Z,51.72
2022-08-14T06:59:31.107Z,51.83
2022-08-14T07:00:35.319Z,52.16
2022-08-14T07:01:56.534Z,51.69
2022-08-14T07:03:17.846Z,51.66
2022-08-14T07:04:39.742Z,51.38
2022-08-14T07:05:54.992Z,51.42
2022-08-14T07:06:59.311Z,51.25
2022-08-14T07:08:01.238Z,51.33
2022-08-14T07:09:04.863Z,51.30
2022-08-14T07:10:07.208Z,51.32
2022-08-14T07:11:08.806Z,51.42
2022-08-14T07:12:34.979Z,51.06
2022-08-14T07:13:33.630Z,51.12
2022-08-14T07:14:35.435Z,51.50
2022-08-14T07:15:39.703Z,51.24
2022-08-14T07:16:43.833Z,51.25
2022-08-14T07:17:51.868Z,50.96
2022-08-14T07:18:54.280Z,50.78
2022-08-14T07:19:56.859Z,50.41
2022-08-14T07:20:59.022Z,50.14
2022-08-14T07:22:00.918Z,50.36
2022-08-14T07:23:11.073Z,49.97
2022-08-14T07:24:31.027Z,50.21
2022-08-14T07:25:34.248Z,50.27
2022-08-14T07:26:39.949Z,50.09
2022-08-14T07:27:42.958Z,50.52
2022-08-14T07:28:44.524Z,50.11
2022-08-14T07:29:46.045Z,49.88
2022-08-14T07:30:51.085Z,49.64
2022-08-14T07:31:53.650Z,49.44
2022-08-14T07:32:55.212Z,49.47
2022-08-14T07:33:56.697Z,49.71
2022-08-14T07:35:00.216Z,49.96
2022-08-14T07:36:02.460Z,49.29
2022-08-14T07:37:05.781Z,49.58
2022-08-14T07:38:07.622Z,49.94
2022-08-14T07:39:13.056Z,49.93
2022-08-14T07:40:15.083Z,50.03
2022-08-14T07:41:34.013Z,49.35
2022-08-14T07:42:37.823Z,48.92
2022-08-14T07:43:42.721Z,48.77
2022-08-14T07:44:46.240Z,49.05
2022-08-14T07:45:52.174Z,48.93
2022-08-14T07:46:55.614Z,49.52
2022-08-14T07:47:57.950Z,49.26
2022-08-14T07:48:59.537Z,49.41
2022-08-14T07:50:02.461Z,49.77
2022-08-14T07:51:10.676Z,49.55
2022-08-14T07:52:12.922Z,49.42
2022-08-14T07:53:14.591Z,48.93
2022-08-14T07:54:22.826Z,48.16
2022-08-14T07:55:31.007Z,48.17
2022-08-14T07:56:48.137Z,48.45
2022-08-14T07:57:52.005Z,48.24
2022-08-14T07:58:53.630Z,48.83
2022-08-14T08:00:00.019Z,48.56
2022-08-14T08:01:02.702Z,48.86
2022-08-14T08:02:05.975Z,48.94
2022-08-14T08:03:19.467Z,47.48
2022-08-14T08:04:27.141Z,47.63
2022-08-14T08:05:28.923Z,48.32
2022-08-14T08:06:30.410Z,48.04
2022-08-14T08:07:32.247Z,48.20
2022-08-14T08:08:34.550Z,48.48
2022-08-14T08:09:37.153Z,47.90
2022-08-14T08:11:01.939Z,48.06
2022-08-14T08:12:04.976Z,48.17
2022-08-14T08:13:12.309Z,47.81
2022-08-14T08:14:17.562Z,47.88
2022-08-14T08:15:19.722Z,47.93
2022-08-14T08:16:26.187Z,48.05
2022-08-14T08:17:34.782Z,47.66
2022-08-14T08:18:40.642Z,47.33
2022-08-14T08:19:42.360Z,47.49
2022-08-14T08:20:53.530Z,46.41
2022-08-14T08:21:55.118Z,46.52
2022-08-14T08:23:00.569Z,46.40
2022-08-14T08:24:07.562Z,46.99
2022-08-14T08:25:13.531Z,46.99
2022-08-14T08:26:15.939Z,46.75
2022-08-14T08:27:19.912Z,46.57
2022-08-14T08:28:26.586Z,47.01
2022-08-14T08:29:29.471Z,46.62
2022-08-14T08:30:31.973Z,46.21
2022-08-14T08:31:35.204Z,46.52
2022-08-14T08:32:41.028Z,46.49
2022-08-14T08:33:43.630Z,46.22
2022-08-14T08:34:50.996Z,46.16
2022-08-14T08:35:52.529Z,45.88
2022-08-14T08:36:54.115Z,46.18
2022-08-14T08:39:14.042Z,46.19
2022-08-14T08:39:30.813Z,45.05
2022-08-14T08:40:52.462Z,45.13
2022-08-14T08:41:54.263Z,45.30
2022-08-14T08:42:55.723Z,45.50
2022-08-14T08:44:05.596Z,45.32
2022-08-14T08:45:11.801Z,44.84
2022-08-14T08:46:21.442Z,45.09
2022-08-14T08:47:24.899Z,45.06
2022-08-14T08:48:31.493Z,44.58
2022-08-14T08:49:48.179Z,44.66
2022-08-14T08:50:54.615Z,44.68
2022-08-14T08:52:04.361Z,44.46
2022-08-14T08:53:07.846Z,44.13
2022-08-14T08:54:18.573Z,44.14
2022-08-14T08:55:26.042Z,44.34
2022-08-14T08:56:37.735Z,44.49
2022-08-14T08:57:42.531Z,44.65
2022-08-14T08:58:44.011Z,43.90
2022-08-14T08:59:45.499Z,43.62
2022-08-14T09:00:50.666Z,43.57
2022-08-14T09:01:58.777Z,43.56
2022-08-14T09:03:03.314Z,43.68
2022-08-14T09:04:07.673Z,43.42
2022-08-14T09:05:16.698Z,43.16
2022-08-14T09:07:01.706Z,43.09
2022-08-14T09:07:39.683Z,42.78
2022-08-14T09:08:45.258Z,42.52
2022-08-14T09:09:53.576Z,42.72
2022-08-14T09:10:59.370Z,41.97
2022-08-14T09:12:02.255Z,42.25
2022-08-14T09:13:04.679Z,42.23
2022-08-14T09:14:06.180Z,41.79
2022-08-14T09:15:11.991Z,41.97
2022-08-14T09:16:19.158Z,41.61
2022-08-14T09:17:21.247Z,42.10
2022-08-14T09:18:27.786Z,42.21
2022-08-14T09:19:29.304Z,41.51
2022-08-14T09:20:31.605Z,41.67
2022-08-14T09:21:34.191Z,42.02
2022-08-14T09:22:42.470Z,42.07
2022-08-14T09:24:30.183Z,41.76
2022-08-14T09:25:11.075Z,41.97
2022-08-14T09:26:21.098Z,41.51
2022-08-14T09:27:23.392Z,41.53
2022-08-14T09:28:25.301Z,41.41
2022-08-14T09:29:28.659Z,40.94
2022-08-14T09:30:34.172Z,40.91
2022-08-14T09:31:43.078Z,40.41
2022-08-14T09:33:10.856Z,40.02
2022-08-14T09:34:28.363Z,39.53
2022-08-14T09:35:46.464Z,39.24
2022-08-14T09:37:06.653Z,39.74
2022-08-14T09:38:27.349Z,38.48
2022-08-14T09:39:35.368Z,38.48
2022-08-14T09:40:50.434Z,38.47
2022-08-14T09:42:20.473Z,38.32
2022-08-14T09:43:22.678Z,38.43
2022-08-14T09:44:41.902Z,37.56
2022-08-14T09:45:53.595Z,37.56
2022-08-14T09:46:58.567Z,37.84
2022-08-14T09:48:00.562Z,37.87
2022-08-14T09:49:04.378Z,37.58
2022-08-14T09:50:15.280Z,38.13
2022-08-14T09:51:21.221Z,37.15
2022-08-14T09:52:34.162Z,37.36
2022-08-14T09:54:18.812Z,37.21
2022-08-14T09:55:05.926Z,37.33
2022-08-14T09:56:10.124Z,37.03
2022-08-14T09:57:13.887Z,36.93
2022-08-14T09:58:22.527Z,37.69
2022-08-14T09:59:27.857Z,36.76
2022-08-14T10:00:40.642Z,36.94
2022-08-14T10:01:43.954Z,36.47
2022-08-14T10:02:54.796Z,36.84
2022-08-14T10:03:56.729Z,35.80
2022-08-14T10:05:09.952Z,35.21
2022-08-14T10:06:17.588Z,35.65
2022-08-14T10:07:29.662Z,34.83
2022-08-14T10:08:39.771Z,34.76
2022-08-14T10:09:59.465Z,34.68
2022-08-14T10:11:14.618Z,34.04
2022-08-14T10:12:28.832Z,34.12
2022-08-14T10:13:52.592Z,33.74
2022-08-14T10:14:53.331Z,33.31
2022-08-14T10:15:58.590Z,33.37
2022-08-14T10:17:02.451Z,33.58
2022-08-14T10:18:18.241Z,33.63
2022-08-14T10:19:20.792Z,33.53
2022-08-14T10:20:39.371Z,33.39
2022-08-14T10:21:58.854Z,33.73
2022-08-14T10:23:18.315Z,34.00
2022-08-14T10:24:23.419Z,34.18
2022-08-14T10:25:39.133Z,34.41
2022-08-14T10:26:54.354Z,34.36
2022-08-14T10:27:59.056Z,34.18
2022-08-14T10:29:18.302Z,34.12
2022-08-14T10:30:26.252Z,33.51
2022-08-14T10:31:45.006Z,33.64
2022-08-14T10:32:51.856Z,33.93
2022-08-14T10:34:00.396Z,33.87
2022-08-14T10:35:13.567Z,33.56
2022-08-14T10:36:36.888Z,33.40
2022-08-14T10:37:44.120Z,33.46
2022-08-14T10:38:50.534Z,33.25
2022-08-14T10:40:05.613Z,33.46
2022-08-14T10:41:13.359Z,32.84
2022-08-14T10:42:18.382Z,33.23
2022-08-14T10:43:26.034Z,33.14
2022-08-14T10:44:32.697Z,32.54
2022-08-14T10:45:35.720Z,32.61
2022-08-14T10:47:36.218Z,32.47
2022-08-14T10:48:34.562Z,31.51
2022-08-14T10:49:39.677Z,29.99
2022-08-14T10:50:46.488Z,30.84
2022-08-14T10:52:06.021Z,29.94
2022-08-14T10:53:08.196Z,30.38
2022-08-14T10:54:26.178Z,30.71
2022-08-14T10:55:39.353Z,31.09
2022-08-14T10:56:47.315Z,30.92
2022-08-14T10:57:52.501Z,31.33
2022-08-14T10:59:00.191Z,30.48
2022-08-14T11:00:02.734Z,29.74
2022-08-14T11:01:07.885Z,30.09
2022-08-14T11:02:36.116Z,31.00
2022-08-14T11:03:56.462Z,31.03
2022-08-14T11:05:01.042Z,31.48
2022-08-14T11:06:17.310Z,31.05
2022-08-14T11:07:21.374Z,30.83
2022-08-14T11:08:32.711Z,30.91
2022-08-14T11:09:34.222Z,30.94
2022-08-14T11:10:46.227Z,31.13
2022-08-14T11:11:54.948Z,30.59
2022-08-14T11:12:57.061Z,30.75
2022-08-14T11:13:58.583Z,30.82
2022-08-14T11:15:02.489Z,30.78
2022-08-14T11:16:04.464Z,30.03
2022-08-14T11:17:09.013Z,30.22
2022-08-14T11:18:12.066Z,30.29
2022-08-14T11:19:24.292Z,30.28
2022-08-14T11:20:28.170Z,30.30
2022-08-14T11:21:30.224Z,29.84
2022-08-14T11:22:55.889Z,29.97
2022-08-14T11:23:57.164Z,30.29
2022-08-14T11:25:01.887Z,29.77
2022-08-14T11:26:08.682Z,29.76
2022-08-14T11:27:12.691Z,30.20
2022-08-14T11:28:18.961Z,29.41
2022-08-14T11:29:21.472Z,29.54
2022-08-14T11:30:50.559Z,29.44
2022-08-14T11:31:51.852Z,29.16
2022-08-14T11:32:55.153Z,29.48
2022-08-14T11:33:58.609Z,29.58
2022-08-14T11:35:03.236Z,29.35
2022-08-14T11:36:17.819Z,29.21
2022-08-14T11:37:36.451Z,29.54
2022-08-14T11:38:45.276Z,29.71
2022-08-14T11:39:48.629Z,29.21
2022-08-14T11:40:52.808Z,29.58
2022-08-14T11:41:58.059Z,29.86
2022-08-14T11:43:01.297Z,30.27
2022-08-14T11:44:04.833Z,30.16
2022-08-14T11:45:23.136Z,29.84
2022-08-14T11:46:30.236Z,30.21
2022-08-14T11:47:44.130Z,29.37
2022-08-14T11:49:05.042Z,29.07
2022-08-14T11:50:25.078Z,29.27
2022-08-14T11:51:53.787Z,29.23
2022-08-14T11:52:57.117Z,29.93
2022-08-14T11:54:05.452Z,29.71
2022-08-14T11:55:11.656Z,29.83
2022-08-14T11:56:13.127Z,29.86
2022-08-14T11:57:15.463Z,29.60
2022-08-14T11:58:24.676Z,29.50
2022-08-14T11:59:32.805Z,29.23
2022-08-14T12:00:45.943Z,29.24
2022-08-14T12:01:48.762Z,29.28
2022-08-14T12:03:03.454Z,29.07
2022-08-14T12:04:09.255Z,29.21
2022-08-14T12:05:39.870Z,29.15
2022-08-14T12:06:52.577Z,29.16
2022-08-14T12:07:55.229Z,29.23
2022-08-14T12:08:56.910Z,29.03
2022-08-14T12:10:01.946Z,28.78
2022-08-14T12:11:23.432Z,28.81
2022-08-14T12:12:36.152Z,28.61
2022-08-14T12:13:38.117Z,28.55
2022-08-14T12:14:48.557Z,28.76
2022-08-14T12:15:57.264Z,28.56
2022-08-14T12:17:02.123Z,28.68
2022-08-14T12:18:04.550Z,28.61
2022-08-14T12:19:06.267Z,28.54
2022-08-14T12:20:11.626Z,28.53
2022-08-14T12:21:26.013Z,28.79
2022-08-14T12:22:34.488Z,28.67
2022-08-14T12:23:36.299Z,29.27
2022-08-14T12:24:40.101Z,29.17
2022-08-14T12:25:42.383Z,29.13
2022-08-14T12:26:44.014Z,28.77
2022-08-14T12:27:59.059Z,28.99
2022-08-14T12:29:09.720Z,28.62
2022-08-14T12:30:14.526Z,28.76
2022-08-14T12:31:22.814Z,28.56
2022-08-14T12:32:24.314Z,28.46
2022-08-14T12:33:33.206Z,28.44
2022-08-14T12:34:37.071Z,28.70
2022-08-14T12:35:39.542Z,28.50
2022-08-14T12:36:41.704Z,28.26
2022-08-14T12:37:49.698Z,28.68
2022-08-14T12:38:54.215Z,28.04
2022-08-14T12:39:55.953Z,28.29
2022-08-14T12:40:58.690Z,28.27
2022-08-14T12:42:11.896Z,28.39
2022-08-14T12:43:29.395Z,28.51
2022-08-14T12:44:32.174Z,28.77
2022-08-14T12:45:35.401Z,28.48
2022-08-14T12:46:37.900Z,28.56
2022-08-14T12:47:41.394Z,28.79
2022-08-14T12:48:50.382Z,28.69
2022-08-14T12:49:57.480Z,28.63
2022-08-14T12:50:59.374Z,28.62
2022-08-14T12:52:01.267Z,28.61
2022-08-14T12:53:14.720Z,28.42
2022-08-14T12:54:27.174Z,28.49
2022-08-14T12:55:32.602Z,28.44
2022-08-14T12:56:50.983Z,28.46
2022-08-14T12:57:56.247Z,28.33
2022-08-14T12:58:58.221Z,27.55
2022-08-14T13:00:26.728Z,26.70
2022-08-14T13:01:28.928Z,26.72
2022-08-14T13:02:35.423Z,27.06
2022-08-14T13:03:37.515Z,26.83
2022-08-14T13:04:39.028Z,27.06
2022-08-14T13:05:44.804Z,27.22
2022-08-14T13:06:50.827Z,27.39
2022-08-14T13:07:53.279Z,26.95
2022-08-14T13:09:00.229Z,27.25
2022-08-14T13:10:45.883Z,27.37
2022-08-14T13:11:25.650Z,27.71
2022-08-14T13:12:33.648Z,27.51
2022-08-14T13:13:50.578Z,27.32
2022-08-14T13:14:55.105Z,27.34
2022-08-14T13:15:57.803Z,27.07
2022-08-14T13:17:00.115Z,27.27
2022-08-14T13:18:04.794Z,27.48
2022-08-14T13:19:09.754Z,27.46
2022-08-14T13:20:24.796Z,27.51
2022-08-14T13:21:28.899Z,27.48
2022-08-14T13:22:33.552Z,27.49
2022-08-14T13:23:40.800Z,27.46
2022-08-14T13:24:46.840Z,27.65
2022-08-14T13:25:56.214Z,26.96
2022-08-14T13:27:00.368Z,26.67
2022-08-14T13:28:01.851Z,27.01
2022-08-14T13:29:03.578Z,26.74
2022-08-14T13:30:10.427Z,26.77
2022-08-14T13:31:12.785Z,27.11
2022-08-14T13:32:14.518Z,26.76
2022-08-14T13:33:17.887Z,26.77
2022-08-14T13:34:23.421Z,26.68
2022-08-14T13:35:25.738Z,26.82
2022-08-14T13:36:54.443Z,27.07
2022-08-14T13:37:52.495Z,27.34
2022-08-14T13:38:56.227Z,26.97
2022-08-14T13:39:57.895Z,26.47
2022-08-14T13:40:59.835Z,26.34
2022-08-14T13:42:04.290Z,25.88
2022-08-14T13:43:09.610Z,26.03
2022-08-14T13:44:13.903Z,26.27
2022-08-14T13:45:15.702Z,26.16
2022-08-14T13:46:20.611Z,26.22
2022-08-14T13:47:30.482Z,26.09
2022-08-14T13:48:35.995Z,25.97
2022-08-14T13:49:40.261Z,26.25
2022-08-14T13:50:42.594Z,26.46
2022-08-14T13:51:49.352Z,26.51
2022-08-14T13:52:54.820Z,26.54
2022-08-14T13:54:10.566Z,26.26
2022-08-14T13:55:14.109Z,26.16
2022-08-14T13:56:36.368Z,26.03
2022-08-14T13:57:39.175Z,26.20
2022-08-14T13:58:51.491Z,26.29
2022-08-14T13:59:52.985Z,26.26
2022-08-14T14:00:58.282Z,26.07
2022-08-14T14:02:02.691Z,26.17
2022-08-14T14:03:05.631Z,26.11
2022-08-14T14:04:07.426Z,26.17
2022-08-14T14:05:18.754Z,25.88
2022-08-14T14:06:25.396Z,25.94
2022-08-14T14:07:26.886Z,26.06
2022-08-14T14:08:46.814Z,25.97
2022-08-14T14:09:52.676Z,25.86
2022-08-14T14:10:55.259Z,25.69
2022-08-14T14:11:58.473Z,25.59
2022-08-14T14:13:02.063Z,25.67
2022-08-14T14:14:04.964Z,25.86
2022-08-14T14:15:07.206Z,26.11
2022-08-14T14:16:11.734Z,25.29
2022-08-14T14:17:17.254Z,25.13
2022-08-14T14:18:33.938Z,25.35
2022-08-14T14:19:36.242Z,25.83
2022-08-14T14:20:37.750Z,26.06
2022-08-14T14:21:40.467Z,25.90
2022-08-14T14:23:02.402Z,26.01
2022-08-14T14:24:05.509Z,25.96
2022-08-14T14:25:07.509Z,25.57
2022-08-14T14:26:13.931Z,25.68
2022-08-14T14:27:39.450Z,25.68
2022-08-14T14:28:39.050Z,25.82
2022-08-14T14:29:47.417Z,25.49
2022-08-14T14:30:52.976Z,25.56
2022-08-14T14:31:55.578Z,25.35